createdAt,value
2023-03-24T00:00:30.228Z,362
2023-03-24T00:02:37.286Z,362
2023-03-24T00:04:44.990Z,362
2023-03-24T00:06:52.160Z,362
2023-03-24T00:08:58.896Z,362
2023-03-24T00:11:05.402Z,363
2023-03-24T00:13:12.597Z,361
2023-03-24T00:15:20.063Z,362
2023-03-24T00:17:27.865Z,362
2023-03-24T00:19:35.242Z,362
2023-03-24T00:21:41.892Z,362
2023-03-24T00:23:48.536Z,362
2023-03-24T00:25:55.535Z,362
2023-03-24T00:28:05.938Z,362
2023-03-24T00:30:13.762Z,361
2023-03-24T00:32:20.940Z,362
2023-03-24T00:34:27.434Z,362
2023-03-24T00:36:34.473Z,362
2023-03-24T00:38:41.054Z,362
2023-03-24T00:40:49.306Z,362
2023-03-24T00:42:59.910Z,362
2023-03-24T00:45:06.598Z,363
2023-03-24T00:47:13.212Z,363
2023-03-24T00:49:19.676Z,362
2023-03-24T00:51:26.463Z,363
2023-03-24T00:53:33.414Z,363
2023-03-24T00:55:40.499Z,362
2023-03-24T00:57:47.249Z,363
2023-03-24T00:59:54.072Z,363
2023-03-24T01:02:00.460Z,363
2023-03-24T01:04:08.060Z,362
2023-03-24T01:06:16.456Z,362
2023-03-24T01:08:23.040Z,363
2023-03-24T01:10:31.228Z,363
2023-03-24T01:12:37.898Z,362
2023-03-24T01:14:45.979Z,363
2023-03-24T01:16:54.580Z,363
2023-03-24T01:19:03.813Z,362
2023-03-24T01:21:11.441Z,363
2023-03-24T01:23:19.001Z,363
2023-03-24T01:25:25.870Z,363
2023-03-24T01:27:32.931Z,362
2023-03-24T01:29:46.177Z,362
2023-03-24T01:31:53.630Z,362
2023-03-24T01:34:03.229Z,363
2023-03-24T01:36:10.633Z,363
2023-03-24T01:38:26.724Z,362
2023-03-24T01:40:33.669Z,362
2023-03-24T01:42:40.451Z,363
2023-03-24T01:44:47.457Z,363
2023-03-24T01:46:54.516Z,362
2023-03-24T01:49:02.904Z,363
2023-03-24T01:51:09.429Z,362
2023-03-24T01:53:16.014Z,362
2023-03-24T01:55:22.973Z,362
2023-03-24T01:57:29.869Z,362
2023-03-24T01:59:36.952Z,361
2023-03-24T02:01:43.764Z,362
2023-03-24T02:03:53.007Z,362
2023-03-24T02:06:02.493Z,362
2023-03-24T02:08:09.416Z,362
2023-03-24T02:10:17.858Z,362
2023-03-24T02:12:24.701Z,363
2023-03-24T02:14:32.911Z,362
2023-03-24T02:16:40.491Z,362
2023-03-24T02:18:55.572Z,363
2023-03-24T02:21:05.356Z,362
2023-03-24T02:23:12.189Z,363
2023-03-24T02:25:18.802Z,363
2023-03-24T02:27:25.528Z,362
2023-03-24T02:29:35.234Z,363
2023-03-24T02:31:43.820Z,363
2023-03-24T02:33:53.790Z,363
2023-03-24T02:36:01.334Z,362
2023-03-24T02:38:11.703Z,362
2023-03-24T02:40:21.109Z,363
2023-03-24T02:42:31.763Z,362
2023-03-24T02:44:38.684Z,363
2023-03-24T02:46:51.102Z,362
2023-03-24T02:49:01.098Z,362
2023-03-24T02:51:07.895Z,363
2023-03-24T02:53:14.640Z,363
2023-03-24T02:55:21.391Z,363
2023-03-24T02:57:27.995Z,363
2023-03-24T02:59:40.497Z,362
2023-03-24T03:01:47.617Z,362
2023-03-24T03:03:55.016Z,363
2023-03-24T03:06:03.806Z,363
2023-03-24T03:08:13.468Z,362
2023-03-24T03:10:20.489Z,363
2023-03-24T03:12:31.346Z,363
2023-03-24T03:14:40.338Z,363
2023-03-24T03:16:47.285Z,362
2023-03-24T03:18:57.542Z,363
2023-03-24T03:21:04.861Z,363
2023-03-24T03:23:16.124Z,363
2023-03-24T03:25:30.257Z,363
2023-03-24T03:27:39.621Z,363
2023-03-24T03:29:48.954Z,363
2023-03-24T03:31:58.566Z,363
2023-03-24T03:34:05.520Z,363
2023-03-24T03:36:12.514Z,362
2023-03-24T03:38:22.591Z,363
2023-03-24T03:40:29.517Z,363
2023-03-24T03:42:39.017Z,363
2023-03-24T03:44:45.511Z,363
2023-03-24T03:46:52.408Z,362
2023-03-24T03:48:59.411Z,363
2023-03-24T03:51:16.799Z,363
2023-03-24T03:53:25.741Z,363
2023-03-24T03:55:32.628Z,363
2023-03-24T03:57:44.396Z,363
2023-03-24T03:59:51.197Z,363
2023-03-24T04:02:01.361Z,363
2023-03-24T04:04:08.051Z,363
2023-03-24T04:06:14.689Z,363
2023-03-24T04:08:24.559Z,363
2023-03-24T04:10:31.982Z,363
2023-03-24T04:12:41.566Z,363
2023-03-24T04:14:52.337Z,363
2023-03-24T04:17:01.817Z,363
2023-03-24T04:19:08.860Z,363
2023-03-24T04:21:15.552Z,363
2023-03-24T04:23:22.298Z,363
2023-03-24T04:25:28.847Z,363
2023-03-24T04:27:35.542Z,363
2023-03-24T04:29:42.124Z,363
2023-03-24T04:31:49.089Z,363
2023-03-24T04:33:58.409Z,363
2023-03-24T04:36:05.280Z,363
2023-03-24T04:38:18.605Z,363
2023-03-24T04:40:26.502Z,363
2023-03-24T04:42:33.261Z,363
2023-03-24T04:44:39.902Z,363
2023-03-24T04:46:47.113Z,363
2023-03-24T04:48:56.576Z,363
2023-03-24T04:51:03.427Z,362
2023-03-24T04:53:10.096Z,363
2023-03-24T04:55:17.203Z,363
2023-03-24T04:57:24.135Z,363
2023-03-24T04:59:31.163Z,363
2023-03-24T05:01:41.148Z,363
2023-03-24T05:04:00.373Z,363
2023-03-24T05:06:10.984Z,363
2023-03-24T05:08:18.279Z,363
2023-03-24T05:10:25.314Z,363
2023-03-24T05:12:32.203Z,363
2023-03-24T05:14:48.665Z,363
2023-03-24T05:16:55.452Z,363
2023-03-24T05:19:01.770Z,363
2023-03-24T05:21:08.597Z,363
2023-03-24T05:23:15.107Z,363
2023-03-24T05:25:22.189Z,363
2023-03-24T05:27:28.742Z,363
2023-03-24T05:29:48.241Z,363
2023-03-24T05:31:55.136Z,363
2023-03-24T05:34:03.768Z,363
2023-03-24T05:36:10.692Z,363
2023-03-24T05:38:17.866Z,363
2023-03-24T05:40:24.495Z,363
2023-03-24T05:42:31.177Z,363
2023-03-24T05:44:39.196Z,363
2023-03-24T05:46:49.921Z,363
2023-03-24T05:48:56.670Z,363
2023-03-24T05:51:06.677Z,363
2023-03-24T05:53:13.624Z,363
2023-03-24T05:55:22.108Z,363
2023-03-24T05:57:28.707Z,363
2023-03-24T05:59:35.567Z,363
2023-03-24T06:01:42.224Z,363
2023-03-24T06:03:49.529Z,363
2023-03-24T06:05:57.367Z,363
2023-03-24T06:08:05.828Z,363
2023-03-24T06:10:12.550Z,363
2023-03-24T06:12:21.949Z,363
2023-03-24T06:14:28.633Z,363
2023-03-24T06:16:38.470Z,363
2023-03-24T06:18:48.518Z,363
2023-03-24T06:20:55.515Z,363
2023-03-24T06:23:02.157Z,363
2023-03-24T06:25:08.658Z,363
2023-03-24T06:27:16.286Z,363
2023-03-24T06:29:24.292Z,363
2023-03-24T06:31:31.814Z,363
2023-03-24T06:33:38.926Z,363
2023-03-24T06:35:46.857Z,363
2023-03-24T06:37:53.993Z,363
2023-03-24T06:40:00.587Z,363
2023-03-24T06:42:08.072Z,363
2023-03-24T06:44:16.034Z,363
2023-03-24T06:46:23.051Z,363
2023-03-24T06:48:29.463Z,363
2023-03-24T06:50:36.392Z,363
2023-03-24T06:52:44.945Z,363
2023-03-24T06:54:51.845Z,363
2023-03-24T06:56:59.720Z,363
2023-03-24T06:59:06.436Z,363
2023-03-24T07:01:13.372Z,363
2023-03-24T07:03:20.932Z,363
2023-03-24T07:05:27.934Z,363
2023-03-24T07:08:38.992Z,363
2023-03-24T07:10:46.439Z,363
2023-03-24T07:12:53.899Z,363
2023-03-24T07:15:00.537Z,363
2023-03-24T07:17:07.354Z,363
2023-03-24T07:19:18.317Z,363
2023-03-24T07:21:24.749Z,363
2023-03-24T07:23:31.190Z,363
2023-03-24T07:25:39.680Z,363
2023-03-24T07:27:46.570Z,363
2023-03-24T07:29:53.801Z,363
2023-03-24T07:32:01.375Z,363
2023-03-24T07:34:10.474Z,363
2023-03-24T07:36:17.994Z,363
2023-03-24T07:38:25.551Z,363
2023-03-24T07:40:32.358Z,363
2023-03-24T07:42:42.938Z,363
2023-03-24T07:44:51.000Z,363
2023-03-24T07:46:57.982Z,363
2023-03-24T07:49:21.490Z,363
2023-03-24T07:51:28.767Z,363
2023-03-24T07:53:36.412Z,363
2023-03-24T07:55:53.031Z,363
2023-03-24T07:58:00.865Z,363
2023-03-24T08:00:08.089Z,363
2023-03-24T08:02:16.848Z,363
2023-03-24T08:04:25.687Z,363
2023-03-24T08:06:32.669Z,363
2023-03-24T08:08:39.597Z,363
2023-03-24T08:10:46.807Z,363
2023-03-24T08:12:53.945Z,363
2023-03-24T08:15:00.671Z,363
2023-03-24T08:17:07.120Z,363
2023-03-24T08:19:13.837Z,363
2023-03-24T08:21:20.471Z,363
2023-03-24T08:23:27.408Z,363
2023-03-24T08:25:34.102Z,363
2023-03-24T08:27:40.773Z,363
2023-03-24T08:29:47.371Z,363
2023-03-24T08:31:53.651Z,363
2023-03-24T08:34:01.277Z,363
2023-03-24T08:36:08.095Z,363
2023-03-24T08:38:16.281Z,363
2023-03-24T08:40:24.826Z,363
2023-03-24T08:42:32.706Z,363
2023-03-24T08:44:39.785Z,363
2023-03-24T08:46:49.160Z,363
2023-03-24T08:48:58.024Z,363
2023-03-24T08:51:04.763Z,363
2023-03-24T08:53:11.183Z,363
2023-03-24T08:55:18.106Z,363
2023-03-24T08:57:25.204Z,363
2023-03-24T08:59:31.912Z,363
2023-03-24T09:01:39.354Z,363
2023-03-24T09:03:46.165Z,363
2023-03-24T09:05:52.690Z,363
2023-03-24T09:07:59.964Z,363
2023-03-24T09:10:06.778Z,363
2023-03-24T09:12:13.640Z,364
2023-03-24T09:14:19.831Z,363
2023-03-24T09:16:27.737Z,363
2023-03-24T09:18:34.652Z,363
2023-03-24T09:20:41.083Z,363
2023-03-24T09:22:47.894Z,364
2023-03-24T09:24:54.965Z,363
2023-03-24T09:27:01.302Z,364
2023-03-24T09:29:08.211Z,363
2023-03-24T09:31:15.133Z,364
2023-03-24T09:33:22.408Z,364
2023-03-24T09:35:30.319Z,364
2023-03-24T09:37:37.741Z,364
2023-03-24T09:39:45.235Z,363
2023-03-24T09:41:52.100Z,363
2023-03-24T09:44:00.119Z,363
2023-03-24T09:46:07.091Z,364
2023-03-24T09:48:13.984Z,363
2023-03-24T09:50:24.572Z,364
2023-03-24T09:52:32.240Z,364
2023-03-24T09:54:38.948Z,363
2023-03-24T09:56:46.732Z,364
2023-03-24T09:58:58.671Z,363
2023-03-24T10:01:05.592Z,364
2023-03-24T10:03:13.877Z,364
2023-03-24T10:05:20.860Z,364
2023-03-24T10:07:27.385Z,363
2023-03-24T10:09:36.563Z,364
2023-03-24T10:11:44.832Z,364
2023-03-24T10:13:52.413Z,364
2023-03-24T10:15:59.003Z,364
2023-03-24T10:18:05.618Z,364
2023-03-24T10:20:12.411Z,364
2023-03-24T10:22:20.168Z,364
2023-03-24T10:24:27.391Z,364
2023-03-24T10:26:34.385Z,364
2023-03-24T10:28:41.912Z,364
2023-03-24T10:30:51.502Z,364
2023-03-24T10:32:58.153Z,364
2023-03-24T10:35:04.868Z,364
2023-03-24T10:37:11.179Z,364
2023-03-24T10:39:43.872Z,364
2023-03-24T10:41:51.996Z,363
2023-03-24T10:43:59.136Z,364
2023-03-24T10:46:05.881Z,364
2023-03-24T10:48:12.524Z,364
2023-03-24T10:50:19.044Z,364
2023-03-24T10:52:25.930Z,364
2023-03-24T10:54:32.854Z,364
2023-03-24T10:56:40.060Z,364
2023-03-24T10:58:47.370Z,364
2023-03-24T11:00:54.374Z,364
2023-03-24T11:03:01.135Z,364
2023-03-24T11:05:08.667Z,364
2023-03-24T11:07:15.727Z,364
2023-03-24T11:09:22.670Z,364
2023-03-24T11:11:29.930Z,364
2023-03-24T11:13:37.619Z,364
2023-03-24T11:15:44.708Z,364
2023-03-24T11:17:52.205Z,364
2023-03-24T11:19:59.033Z,364
2023-03-24T11:22:05.930Z,364
2023-03-24T11:24:13.032Z,364
2023-03-24T11:26:20.822Z,364
2023-03-24T11:28:28.443Z,364
2023-03-24T11:30:35.684Z,364
2023-03-24T11:32:43.348Z,364
2023-03-24T11:34:50.668Z,364
2023-03-24T11:36:57.560Z,364
2023-03-24T11:39:05.782Z,364
2023-03-24T11:41:12.276Z,364
2023-03-24T11:43:20.121Z,364
2023-03-24T11:45:27.199Z,364
2023-03-24T11:47:33.875Z,364
2023-03-24T11:49:41.667Z,364
2023-03-24T11:51:49.162Z,364
2023-03-24T11:53:55.471Z,364
2023-03-24T11:56:02.201Z,364
2023-03-24T11:58:09.156Z,364
2023-03-24T12:00:15.516Z,364
2023-03-24T12:02:23.228Z,364
2023-03-24T12:04:30.276Z,364
2023-03-24T12:06:36.727Z,364
2023-03-24T12:08:43.588Z,364
2023-03-24T12:10:49.979Z,364
2023-03-24T12:12:56.737Z,364
2023-03-24T12:15:04.441Z,364
2023-03-24T12:17:28.851Z,364
2023-03-24T12:19:36.365Z,364
2023-03-24T12:21:43.264Z,364
2023-03-24T12:23:50.827Z,364
2023-03-24T12:25:57.350Z,364
2023-03-24T12:28:03.610Z,364
2023-03-24T12:30:10.033Z,364
2023-03-24T12:32:16.359Z,364
2023-03-24T12:34:22.911Z,364
2023-03-24T12:36:29.367Z,364
2023-03-24T12:38:35.805Z,364
2023-03-24T12:40:41.996Z,364
2023-03-24T12:42:48.379Z,364
2023-03-24T12:44:54.536Z,364
2023-03-24T12:47:01.030Z,364
2023-03-24T12:49:07.798Z,364
2023-03-24T12:51:14.340Z,364
2023-03-24T12:53:21.245Z,364
2023-03-24T12:55:28.610Z,364
2023-03-24T12:57:35.215Z,364
2023-03-24T12:59:42.422Z,364
2023-03-24T13:01:50.750Z,364
2023-03-24T13:03:57.888Z,364
2023-03-24T13:06:19.146Z,364
2023-03-24T13:08:25.924Z,364
2023-03-24T13:10:33.959Z,364
2023-03-24T13:15:49.891Z,364
2023-03-24T13:17:56.861Z,364
2023-03-24T13:20:03.376Z,364
2023-03-24T13:22:09.761Z,364
2023-03-24T13:24:19.381Z,364
2023-03-24T13:26:26.984Z,364
2023-03-24T13:28:34.114Z,364
2023-03-24T13:30:40.642Z,364
2023-03-24T13:32:48.020Z,364
2023-03-24T13:34:55.661Z,364
2023-03-24T13:37:03.428Z,364
2023-03-24T13:39:11.727Z,364
2023-03-24T13:41:18.332Z,364
2023-03-24T13:43:25.133Z,364
2023-03-24T13:45:31.560Z,364
2023-03-24T13:47:38.282Z,365
2023-03-24T13:49:46.475Z,364
2023-03-24T13:51:54.737Z,364
2023-03-24T13:54:02.179Z,364
2023-03-24T13:56:09.385Z,364
2023-03-24T13:58:16.855Z,365
2023-03-24T14:00:23.321Z,364
2023-03-24T14:02:30.781Z,364
2023-03-24T14:04:37.293Z,364
2023-03-24T14:06:43.967Z,365
2023-03-24T14:08:51.717Z,364
2023-03-24T14:10:58.371Z,365
2023-03-24T14:13:07.371Z,365
2023-03-24T14:15:14.145Z,365
2023-03-24T14:17:20.998Z,364
2023-03-24T14:19:27.659Z,365
2023-03-24T14:21:34.453Z,364
2023-03-24T14:23:41.653Z,364
2023-03-24T14:25:54.152Z,365
2023-03-24T14:28:01.854Z,364
2023-03-24T14:30:10.273Z,365
2023-03-24T14:32:25.066Z,365
2023-03-24T14:34:32.979Z,365
2023-03-24T14:36:41.139Z,365
2023-03-24T14:38:48.630Z,365
2023-03-24T14:40:56.248Z,365
2023-03-24T14:43:04.591Z,365
2023-03-24T14:45:17.688Z,364
2023-03-24T14:47:27.710Z,365
2023-03-24T14:49:46.213Z,365
2023-03-24T14:51:54.608Z,365
2023-03-24T14:54:02.690Z,365
2023-03-24T14:56:10.442Z,365
2023-03-24T14:58:18.226Z,365
2023-03-24T15:00:26.058Z,365
2023-03-24T15:02:34.974Z,364
2023-03-24T15:04:43.294Z,365
2023-03-24T15:06:51.211Z,365
2023-03-24T15:08:58.979Z,365
2023-03-24T15:11:06.491Z,365
2023-03-24T15:13:14.820Z,365
2023-03-24T15:15:22.541Z,365
2023-03-24T15:17:30.586Z,365
2023-03-24T15:19:38.035Z,365
2023-03-24T15:21:45.351Z,365
2023-03-24T15:23:52.537Z,365
2023-03-24T15:25:59.531Z,365
2023-03-24T15:28:07.195Z,365
2023-03-24T15:30:15.425Z,365
2023-03-24T15:32:22.153Z,365
2023-03-24T15:34:29.180Z,365
2023-03-24T15:36:35.791Z,365
2023-03-24T15:38:42.135Z,365
2023-03-24T15:40:50.456Z,365
2023-03-24T15:42:57.995Z,365
2023-03-24T15:45:05.627Z,365
2023-03-24T15:47:13.846Z,365
2023-03-24T15:49:21.759Z,365
2023-03-24T15:51:28.217Z,365
2023-03-24T15:53:34.848Z,365
2023-03-24T15:55:41.235Z,365
2023-03-24T15:57:47.882Z,365
2023-03-24T15:59:54.456Z,365
2023-03-24T16:02:00.666Z,365
2023-03-24T16:04:08.061Z,365
2023-03-24T16:06:15.080Z,365
2023-03-24T16:08:21.790Z,365
2023-03-24T16:10:28.329Z,365
2023-03-24T16:12:34.894Z,365
2023-03-24T16:14:43.072Z,365
2023-03-24T16:16:50.348Z,365
2023-03-24T16:18:57.439Z,365
2023-03-24T16:21:04.049Z,365
2023-03-24T16:23:11.055Z,365
2023-03-24T16:25:17.723Z,365
2023-03-24T16:27:23.990Z,365
2023-03-24T16:29:30.619Z,365
2023-03-24T16:31:38.585Z,365
2023-03-24T16:33:47.241Z,365
2023-03-24T16:35:55.679Z,365
2023-03-24T16:38:03.062Z,365
2023-03-24T16:40:10.357Z,365
2023-03-24T16:42:16.886Z,365
2023-03-24T16:44:25.005Z,365
2023-03-24T16:46:32.615Z,365
2023-03-24T16:48:40.815Z,365
2023-03-24T16:50:48.980Z,365
2023-03-24T16:52:55.951Z,365
2023-03-24T16:55:02.878Z,365
2023-03-24T16:57:09.690Z,365
2023-03-24T16:59:17.417Z,365
2023-03-24T17:01:25.536Z,365
2023-03-24T17:03:33.203Z,365
2023-03-24T17:05:43.589Z,365
2023-03-24T17:07:53.429Z,365
2023-03-24T17:10:01.315Z,365
2023-03-24T17:12:10.343Z,365
2023-03-24T17:14:19.396Z,365
2023-03-24T17:16:27.289Z,365
2023-03-24T17:18:36.097Z,365
2023-03-24T17:20:46.506Z,365
2023-03-24T17:22:59.205Z,365
2023-03-24T17:25:08.154Z,365
2023-03-24T17:27:16.813Z,365
2023-03-24T17:29:25.226Z,365
2023-03-24T17:31:33.441Z,365
2023-03-24T17:33:40.878Z,365
2023-03-24T17:35:49.421Z,365
2023-03-24T17:38:09.164Z,365
2023-03-24T17:40:19.390Z,365
2023-03-24T17:42:27.154Z,365
2023-03-24T17:44:37.712Z,365
2023-03-24T17:46:47.719Z,365
2023-03-24T17:48:58.909Z,365
2023-03-24T17:51:08.872Z,365
2023-03-24T17:53:18.371Z,365
2023-03-24T17:55:27.799Z,365
2023-03-24T17:57:38.242Z,365
2023-03-24T17:59:48.810Z,365
2023-03-24T18:02:01.346Z,365
2023-03-24T18:04:10.026Z,365
2023-03-24T18:06:19.524Z,365
2023-03-24T18:08:32.559Z,365
2023-03-24T18:10:44.112Z,365
2023-03-24T18:12:54.624Z,365
2023-03-24T18:15:10.107Z,365
2023-03-24T18:17:25.554Z,365
2023-03-24T18:19:37.271Z,365
2023-03-24T18:21:53.598Z,365
2023-03-24T18:24:04.927Z,365
2023-03-24T18:26:18.955Z,365
2023-03-24T18:28:33.756Z,365
2023-03-24T18:30:43.882Z,365
2023-03-24T18:32:55.202Z,365
2023-03-24T18:35:05.889Z,365
2023-03-24T18:37:19.593Z,365
2023-03-24T18:39:30.831Z,365
2023-03-24T18:41:40.579Z,365
2023-03-24T18:43:52.552Z,365
2023-03-24T18:46:05.262Z,365
2023-03-24T18:48:18.302Z,365
2023-03-24T18:50:28.999Z,365
2023-03-24T18:52:39.989Z,365
2023-03-24T18:54:53.066Z,365
2023-03-24T18:57:07.868Z,365
2023-03-24T18:59:20.934Z,365
2023-03-24T19:01:33.842Z,365
2023-03-24T19:03:46.134Z,365
2023-03-24T19:05:59.119Z,365
2023-03-24T19:08:08.460Z,365
2023-03-24T19:10:26.485Z,365
2023-03-24T19:12:40.674Z,365
2023-03-24T19:14:53.079Z,364
2023-03-24T19:17:07.278Z,365
2023-03-24T19:19:19.686Z,364
2023-03-24T19:21:31.740Z,365
2023-03-24T19:23:52.065Z,364
2023-03-24T19:26:13.147Z,364
2023-03-24T19:28:23.538Z,364
2023-03-24T19:30:36.717Z,364
2023-03-24T19:32:49.747Z,364
2023-03-24T19:35:03.350Z,364
2023-03-24T19:37:17.367Z,364
2023-03-24T19:39:30.187Z,364
2023-03-24T19:41:46.305Z,364
2023-03-24T19:43:57.609Z,364
2023-03-24T19:46:10.605Z,364
2023-03-24T19:48:22.445Z,364
2023-03-24T19:50:32.405Z,364
2023-03-24T19:52:43.458Z,364
2023-03-24T19:54:53.693Z,364
2023-03-24T19:57:08.967Z,364
2023-03-24T19:59:21.599Z,364
2023-03-24T20:01:39.201Z,363
2023-03-24T20:03:50.856Z,364
2023-03-24T20:06:02.860Z,363
2023-03-24T20:08:18.336Z,364
2023-03-24T20:10:28.922Z,363
2023-03-24T20:12:45.035Z,363
2023-03-24T20:14:55.816Z,363
2023-03-24T20:17:10.079Z,363
2023-03-24T20:19:32.920Z,363
2023-03-24T20:21:51.204Z,363
2023-03-24T20:24:12.006Z,363
2023-03-24T20:26:21.778Z,363
2023-03-24T20:28:29.255Z,363
2023-03-24T20:30:51.081Z,363
2023-03-24T20:33:07.252Z,363
2023-03-24T20:35:18.483Z,363
2023-03-24T20:37:27.230Z,363
2023-03-24T20:39:40.480Z,363
2023-03-24T20:42:01.413Z,362
2023-03-24T20:44:12.899Z,363
2023-03-24T20:46:26.989Z,363
2023-03-24T20:48:40.178Z,363
2023-03-24T20:50:51.300Z,363
2023-03-24T20:53:04.393Z,362
2023-03-24T20:55:19.013Z,361
2023-03-24T20:57:29.009Z,362
2023-03-24T20:59:44.251Z,361
2023-03-24T21:01:54.598Z,362
2023-03-24T21:04:12.877Z,361
2023-03-24T21:06:24.753Z,361
2023-03-24T21:08:37.036Z,361
2023-03-24T21:10:51.373Z,361
2023-03-24T21:13:05.737Z,361
2023-03-24T21:15:18.226Z,361
2023-03-24T21:17:30.838Z,361
2023-03-24T21:19:44.259Z,361
2023-03-24T21:21:57.490Z,361
2023-03-24T21:24:08.211Z,361
2023-03-24T21:26:22.900Z,361
2023-03-24T21:28:37.923Z,361
2023-03-24T21:30:48.031Z,361
2023-03-24T21:32:57.349Z,361
2023-03-24T21:35:08.692Z,360
2023-03-24T21:37:17.949Z,361
2023-03-24T21:39:25.724Z,360
2023-03-24T21:41:34.971Z,360
2023-03-24T21:43:43.625Z,360
2023-03-24T21:45:51.291Z,360
2023-03-24T21:47:58.658Z,360
2023-03-24T21:50:07.222Z,360
2023-03-24T21:52:15.300Z,360
2023-03-24T21:54:22.498Z,360
2023-03-24T21:56:30.211Z,360
2023-03-24T21:58:39.279Z,360
2023-03-24T22:00:47.163Z,360
2023-03-24T22:02:53.997Z,360
2023-03-24T22:05:00.919Z,360
2023-03-24T22:07:07.634Z,360
2023-03-24T22:09:14.597Z,360
2023-03-24T22:11:22.280Z,360
2023-03-24T22:13:29.040Z,360
2023-03-24T22:15:38.803Z,360
2023-03-24T22:17:45.773Z,360
2023-03-24T22:19:53.585Z,358
2023-03-24T22:22:01.476Z,358
2023-03-24T22:24:08.096Z,358
2023-03-24T22:26:14.624Z,358
2023-03-24T22:28:21.825Z,358
2023-03-24T22:30:28.499Z,357
2023-03-24T22:32:35.307Z,357
2023-03-24T22:34:43.092Z,357
2023-03-24T22:36:49.268Z,357
2023-03-24T22:38:56.628Z,357
2023-03-24T22:41:03.763Z,357
2023-03-24T22:43:11.072Z,357
2023-03-24T22:45:19.020Z,357
2023-03-24T22:47:26.099Z,357
2023-03-24T22:49:33.235Z,357
2023-03-24T22:51:39.752Z,357
2023-03-24T22:53:46.257Z,357
2023-03-24T22:55:54.991Z,357
2023-03-24T22:58:02.117Z,357
2023-03-24T23:00:09.391Z,357
2023-03-24T23:02:16.631Z,357
2023-03-24T23:04:23.190Z,357
2023-03-24T23:06:29.563Z,356
2023-03-24T23:08:36.606Z,356
2023-03-24T23:10:43.845Z,357
2023-03-24T23:12:50.805Z,356
2023-03-24T23:14:57.637Z,356
2023-03-24T23:17:03.992Z,356
2023-03-24T23:19:10.338Z,356
2023-03-24T23:21:17.092Z,356
2023-03-24T23:23:23.820Z,356
2023-03-24T23:25:31.204Z,356
2023-03-24T23:27:38.728Z,356
2023-03-24T23:29:46.149Z,356
2023-03-24T23:31:52.835Z,356
2023-03-24T23:33:59.578Z,356
2023-03-24T23:36:07.203Z,356
2023-03-24T23:38:14.329Z,356
2023-03-24T23:40:20.920Z,356
2023-03-24T23:42:27.105Z,356
2023-03-24T23:44:33.825Z,355
2023-03-24T23:46:40.207Z,356
2023-03-24T23:48:47.188Z,356
2023-03-24T23:50:54.000Z,355
2023-03-24T23:53:01.088Z,355
2023-03-24T23:55:07.683Z,355
2023-03-24T23:57:14.403Z,355
2023-03-24T23:59:21.352Z,355
